sensor_id;sensor_type;location;lat;lon;timestamp;P1;durP1;ratioP1;P2;durP2;ratioP2
68247;SDS011;55064;49.636;12.164;2022-10-01T00:00:58;8.30;;;3.78;;
68247;SDS011;55064;49.636;12.164;2022-10-01T00:03:27;7.43;;;3.50;;
68247;SDS011;55064;49.636;12.164;2022-10-01T00:05:59;11.43;;;3.88;;
68247;SDS011;55064;49.636;12.164;2022-10-01T00:08:26;9.40;;;3.50;;
68247;SDS011;55064;49.636;12.164;2022-10-01T00:10:54;9.35;;;3.83;;
68247;SDS011;55064;49.636;12.164;2022-10-01T00:13:20;8.88;;;4.00;;
68247;SDS011;55064;49.636;12.164;2022-10-01T00:15:48;7.97;;;3.70;;
68247;SDS011;55064;49.636;12.164;2022-10-01T00:18:16;8.23;;;3.75;;
68247;SDS011;55064;49.636;12.164;2022-10-01T00:20:41;10.27;;;4.03;;
68247;SDS011;55064;49.636;12.164;2022-10-01T00:23:10;9.20;;;3.90;;
68247;SDS011;55064;49.636;12.164;2022-10-01T00:25:36;8.80;;;3.90;;
68247;SDS011;55064;49.636;12.164;2022-10-01T00:28:06;10.52;;;3.72;;
68247;SDS011;55064;49.636;12.164;2022-10-01T00:30:35;7.28;;;3.53;;
68247;SDS011;55064;49.636;12.164;2022-10-01T00:33:01;7.60;;;3.33;;
68247;SDS011;55064;49.636;12.164;2022-10-01T00:35:26;7.50;;;3.50;;
68247;SDS011;55064;49.636;12.164;2022-10-01T00:37:52;7.68;;;3.60;;
68247;SDS011;55064;49.636;12.164;2022-10-01T00:40:19;7.80;;;3.70;;
68247;SDS011;55064;49.636;12.164;2022-10-01T00:42:46;7.28;;;3.22;;
68247;SDS011;55064;49.636;12.164;2022-10-01T00:45:12;7.83;;;3.60;;
68247;SDS011;55064;49.636;12.164;2022-10-01T00:52:58;9.23;;;3.83;;
68247;SDS011;55064;49.636;12.164;2022-10-01T00:55:30;8.43;;;4.00;;
68247;SDS011;55064;49.636;12.164;2022-10-01T00:58:05;8.13;;;3.80;;
68247;SDS011;55064;49.636;12.164;2022-10-01T01:00:36;8.02;;;3.60;;
68247;SDS011;55064;49.636;12.164;2022-10-01T01:03:08;8.55;;;3.72;;
68247;SDS011;55064;49.636;12.164;2022-10-01T01:05:39;9.68;;;3.72;;
68247;SDS011;55064;49.636;12.164;2022-10-01T01:08:05;9.97;;;3.70;;
68247;SDS011;55064;49.636;12.164;2022-10-01T01:13:36;6.73;;;3.10;;
68247;SDS011;55064;49.636;12.164;2022-10-01T01:17:05;7.10;;;3.33;;
68247;SDS011;55064;49.636;12.164;2022-10-01T01:19:51;7.70;;;3.50;;
68247;SDS011;55064;49.636;12.164;2022-10-01T01:22:35;7.45;;;3.40;;
68247;SDS011;55064;49.636;12.164;2022-10-01T01:25:15;9.18;;;4.07;;
68247;SDS011;55064;49.636;12.164;2022-10-01T01:27:45;8.13;;;3.80;;
68247;SDS011;55064;49.636;12.164;2022-10-01T01:30:23;7.85;;;3.75;;
68247;SDS011;55064;49.636;12.164;2022-10-01T01:35:33;9.82;;;3.70;;
68247;SDS011;55064;49.636;12.164;2022-10-01T01:38:07;8.95;;;3.92;;
68247;SDS011;55064;49.636;12.164;2022-10-01T01:40:38;8.50;;;3.27;;
68247;SDS011;55064;49.636;12.164;2022-10-01T01:43:09;8.70;;;4.05;;
68247;SDS011;55064;49.636;12.164;2022-10-01T01:45:39;7.65;;;3.65;;
68247;SDS011;55064;49.636;12.164;2022-10-01T01:48:06;9.80;;;3.70;;
68247;SDS011;55064;49.636;12.164;2022-10-01T01:50:36;8.57;;;3.95;;
68247;SDS011;55064;49.636;12.164;2022-10-01T01:53:07;9.00;;;3.73;;
68247;SDS011;55064;49.636;12.164;2022-10-01T01:55:35;8.02;;;3.58;;
68247;SDS011;55064;49.636;12.164;2022-10-01T01:58:01;8.07;;;3.58;;
68247;SDS011;55064;49.636;12.164;2022-10-01T02:00:29;7.80;;;3.42;;
68247;SDS011;55064;49.636;12.164;2022-10-01T02:02:57;8.10;;;3.70;;
68247;SDS011;55064;49.636;12.164;2022-10-01T02:05:24;8.10;;;3.77;;
68247;SDS011;55064;49.636;12.164;2022-10-01T02:10:54;7.72;;;3.25;;
68247;SDS011;55064;49.636;12.164;2022-10-01T02:13:51;7.32;;;3.00;;
68247;SDS011;55064;49.636;12.164;2022-10-01T02:22:17;7.63;;;3.38;;
68247;SDS011;55064;49.636;12.164;2022-10-01T02:30:09;7.00;;;3.42;;
68247;SDS011;55064;49.636;12.164;2022-10-01T02:32:38;8.17;;;3.53;;
68247;SDS011;55064;49.636;12.164;2022-10-01T02:35:06;7.65;;;3.58;;
68247;SDS011;55064;49.636;12.164;2022-10-01T02:37:37;7.30;;;2.92;;
68247;SDS011;55064;49.636;12.164;2022-10-01T02:40:05;13.25;;;4.00;;
68247;SDS011;55064;49.636;12.164;2022-10-01T02:42:36;8.55;;;3.40;;
68247;SDS011;55064;49.636;12.164;2022-10-01T02:45:07;8.27;;;3.63;;
68247;SDS011;55064;49.636;12.164;2022-10-01T02:47:36;8.93;;;3.58;;
68247;SDS011;55064;49.636;12.164;2022-10-01T02:50:10;7.70;;;3.22;;
68247;SDS011;55064;49.636;12.164;2022-10-01T02:52:44;9.23;;;3.72;;
68247;SDS011;55064;49.636;12.164;2022-10-01T02:55:20;8.13;;;3.97;;
68247;SDS011;55064;49.636;12.164;2022-10-01T02:57:52;8.93;;;4.10;;
68247;SDS011;55064;49.636;12.164;2022-10-01T03:00:18;9.40;;;4.15;;
68247;SDS011;55064;49.636;12.164;2022-10-01T03:02:47;7.72;;;3.40;;
68247;SDS011;55064;49.636;12.164;2022-10-01T03:05:15;8.45;;;3.95;;
68247;SDS011;55064;49.636;12.164;2022-10-01T03:07:41;9.80;;;4.00;;
68247;SDS011;55064;49.636;12.164;2022-10-01T03:10:10;8.43;;;3.73;;
68247;SDS011;55064;49.636;12.164;2022-10-01T03:12:36;9.35;;;3.75;;
68247;SDS011;55064;49.636;12.164;2022-10-01T03:15:06;8.70;;;3.90;;
68247;SDS011;55064;49.636;12.164;2022-10-01T03:17:31;8.63;;;3.97;;
68247;SDS011;55064;49.636;12.164;2022-10-01T03:20:01;9.38;;;4.10;;
68247;SDS011;55064;49.636;12.164;2022-10-01T03:22:27;9.10;;;4.00;;
68247;SDS011;55064;49.636;12.164;2022-10-01T03:24:55;9.03;;;3.70;;
68247;SDS011;55064;49.636;12.164;2022-10-01T03:27:20;9.48;;;4.00;;
68247;SDS011;55064;49.636;12.164;2022-10-01T03:29:47;11.82;;;4.60;;
68247;SDS011;55064;49.636;12.164;2022-10-01T03:32:13;9.10;;;4.10;;
68247;SDS011;55064;49.636;12.164;2022-10-01T03:34:39;12.82;;;4.53;;
68247;SDS011;55064;49.636;12.164;2022-10-01T03:37:04;8.87;;;4.00;;
68247;SDS011;55064;49.636;12.164;2022-10-01T03:39:30;11.15;;;4.95;;
68247;SDS011;55064;49.636;12.164;2022-10-01T03:41:56;9.65;;;4.30;;
68247;SDS011;55064;49.636;12.164;2022-10-01T03:44:24;9.93;;;4.40;;
68247;SDS011;55064;49.636;12.164;2022-10-01T03:46:49;9.13;;;3.63;;
68247;SDS011;55064;49.636;12.164;2022-10-01T03:49:16;8.48;;;4.07;;
68247;SDS011;55064;49.636;12.164;2022-10-01T03:51:44;8.30;;;3.50;;
68247;SDS011;55064;49.636;12.164;2022-10-01T03:54:12;9.65;;;3.85;;
68247;SDS011;55064;49.636;12.164;2022-10-01T03:56:43;9.55;;;4.00;;
68247;SDS011;55064;49.636;12.164;2022-10-01T03:59:09;12.03;;;4.10;;
68247;SDS011;55064;49.636;12.164;2022-10-01T04:01:35;8.60;;;3.80;;
68247;SDS011;55064;49.636;12.164;2022-10-01T04:04:00;7.60;;;3.40;;
68247;SDS011;55064;49.636;12.164;2022-10-01T04:06:28;10.00;;;4.50;;
68247;SDS011;55064;49.636;12.164;2022-10-01T04:08:54;8.85;;;4.07;;
68247;SDS011;55064;49.636;12.164;2022-10-01T04:11:19;8.10;;;3.57;;
68247;SDS011;55064;49.636;12.164;2022-10-01T04:13:45;8.07;;;3.63;;
68247;SDS011;55064;49.636;12.164;2022-10-01T04:16:11;10.67;;;3.73;;
68247;SDS011;55064;49.636;12.164;2022-10-01T04:18:36;9.30;;;4.18;;
68247;SDS011;55064;49.636;12.164;2022-10-01T04:21:02;9.37;;;4.70;;
68247;SDS011;55064;49.636;12.164;2022-10-01T04:23:28;11.23;;;5.23;;
68247;SDS011;55064;49.636;12.164;2022-10-01T04:25:59;11.25;;;5.18;;
68247;SDS011;55064;49.636;12.164;2022-10-01T04:28:27;14.02;;;5.07;;
68247;SDS011;55064;49.636;12.164;2022-10-01T04:30:54;12.27;;;5.45;;
68247;SDS011;55064;49.636;12.164;2022-10-01T04:33:39;10.43;;;4.80;;
68247;SDS011;55064;49.636;12.164;2022-10-01T04:36:07;12.80;;;5.20;;
68247;SDS011;55064;49.636;12.164;2022-10-01T04:38:35;11.73;;;5.53;;
68247;SDS011;55064;49.636;12.164;2022-10-01T04:41:01;12.07;;;5.87;;
68247;SDS011;55064;49.636;12.164;2022-10-01T04:43:29;13.65;;;6.15;;
68247;SDS011;55064;49.636;12.164;2022-10-01T04:45:56;12.60;;;6.45;;
68247;SDS011;55064;49.636;12.164;2022-10-01T04:48:22;13.67;;;6.73;;
68247;SDS011;55064;49.636;12.164;2022-10-01T04:50:48;15.43;;;6.43;;
68247;SDS011;55064;49.636;12.164;2022-10-01T04:53:13;12.70;;;6.20;;
68247;SDS011;55064;49.636;12.164;2022-10-01T04:55:39;13.03;;;5.97;;
68247;SDS011;55064;49.636;12.164;2022-10-01T04:58:04;12.93;;;5.80;;
68247;SDS011;55064;49.636;12.164;2022-10-01T05:00:34;12.15;;;6.07;;
68247;SDS011;55064;49.636;12.164;2022-10-01T05:03:00;12.50;;;6.23;;
68247;SDS011;55064;49.636;12.164;2022-10-01T05:05:28;14.20;;;6.00;;
68247;SDS011;55064;49.636;12.164;2022-10-01T05:07:59;12.27;;;6.32;;
68247;SDS011;55064;49.636;12.164;2022-10-01T05:10:28;13.27;;;6.87;;
68247;SDS011;55064;49.636;12.164;2022-10-01T05:12:53;14.38;;;6.88;;
68247;SDS011;55064;49.636;12.164;2022-10-01T05:15:23;14.47;;;7.17;;
68247;SDS011;55064;49.636;12.164;2022-10-01T05:17:53;19.05;;;8.85;;
68247;SDS011;55064;49.636;12.164;2022-10-01T05:20:26;15.52;;;7.80;;
68247;SDS011;55064;49.636;12.164;2022-10-01T05:22:52;19.30;;;9.17;;
68247;SDS011;55064;49.636;12.164;2022-10-01T05:25:24;19.00;;;8.75;;
68247;SDS011;55064;49.636;12.164;2022-10-01T05:27:52;17.17;;;8.57;;
68247;SDS011;55064;49.636;12.164;2022-10-01T05:30:17;18.88;;;8.90;;
68247;SDS011;55064;49.636;12.164;2022-10-01T05:32:58;17.95;;;8.77;;
68247;SDS011;55064;49.636;12.164;2022-10-01T05:35:28;18.90;;;10.30;;
68247;SDS011;55064;49.636;12.164;2022-10-01T05:37:54;20.48;;;9.40;;
68247;SDS011;55064;49.636;12.164;2022-10-01T05:40:21;24.80;;;10.98;;
68247;SDS011;55064;49.636;12.164;2022-10-01T05:42:49;21.67;;;10.40;;
68247;SDS011;55064;49.636;12.164;2022-10-01T05:45:15;20.57;;;10.50;;
68247;SDS011;55064;49.636;12.164;2022-10-01T05:47:47;18.98;;;9.35;;
68247;SDS011;55064;49.636;12.164;2022-10-01T05:50:13;19.47;;;9.33;;
68247;SDS011;55064;49.636;12.164;2022-10-01T05:52:46;19.25;;;9.30;;
68247;SDS011;55064;49.636;12.164;2022-10-01T05:55:13;17.98;;;9.20;;
68247;SDS011;55064;49.636;12.164;2022-10-01T05:57:38;18.77;;;8.50;;
68247;SDS011;55064;49.636;12.164;2022-10-01T06:00:04;17.67;;;8.43;;
68247;SDS011;55064;49.636;12.164;2022-10-01T06:02:30;19.55;;;9.60;;
68247;SDS011;55064;49.636;12.164;2022-10-01T06:04:55;19.47;;;9.27;;
68247;SDS011;55064;49.636;12.164;2022-10-01T06:07:20;18.93;;;8.93;;
68247;SDS011;55064;49.636;12.164;2022-10-01T06:09:46;22.10;;;9.03;;
68247;SDS011;55064;49.636;12.164;2022-10-01T06:12:11;18.83;;;8.53;;
68247;SDS011;55064;49.636;12.164;2022-10-01T06:14:37;18.13;;;9.15;;
68247;SDS011;55064;49.636;12.164;2022-10-01T06:17:07;18.40;;;9.25;;
68247;SDS011;55064;49.636;12.164;2022-10-01T06:19:32;18.43;;;9.10;;
68247;SDS011;55064;49.636;12.164;2022-10-01T06:21:57;20.00;;;9.07;;
68247;SDS011;55064;49.636;12.164;2022-10-01T06:24:25;25.83;;;9.85;;
68247;SDS011;55064;49.636;12.164;2022-10-01T06:26:51;19.00;;;8.80;;
68247;SDS011;55064;49.636;12.164;2022-10-01T06:29:16;20.30;;;10.20;;
68247;SDS011;55064;49.636;12.164;2022-10-01T06:31:47;20.77;;;10.05;;
68247;SDS011;55064;49.636;12.164;2022-10-01T06:34:17;21.10;;;9.98;;
68247;SDS011;55064;49.636;12.164;2022-10-01T06:36:42;21.97;;;10.77;;
68247;SDS011;55064;49.636;12.164;2022-10-01T06:39:08;22.37;;;10.77;;
68247;SDS011;55064;49.636;12.164;2022-10-01T06:41:38;24.17;;;10.90;;
68247;SDS011;55064;49.636;12.164;2022-10-01T06:44:04;26.08;;;11.30;;
68247;SDS011;55064;49.636;12.164;2022-10-01T06:46:32;24.52;;;10.98;;
68247;SDS011;55064;49.636;12.164;2022-10-01T06:49:00;23.83;;;11.00;;
68247;SDS011;55064;49.636;12.164;2022-10-01T06:51:25;25.10;;;11.23;;
68247;SDS011;55064;49.636;12.164;2022-10-01T06:54:09;24.60;;;11.33;;
68247;SDS011;55064;49.636;12.164;2022-10-01T06:56:35;21.98;;;10.45;;
68247;SDS011;55064;49.636;12.164;2022-10-01T06:59:01;25.50;;;11.33;;
68247;SDS011;55064;49.636;12.164;2022-10-01T07:01:27;24.02;;;11.65;;
68247;SDS011;55064;49.636;12.164;2022-10-01T07:03:53;22.33;;;10.80;;
68247;SDS011;55064;49.636;12.164;2022-10-01T07:06:20;24.63;;;11.80;;
68247;SDS011;55064;49.636;12.164;2022-10-01T07:08:49;24.80;;;10.85;;
68247;SDS011;55064;49.636;12.164;2022-10-01T07:11:14;23.57;;;11.20;;
68247;SDS011;55064;49.636;12.164;2022-10-01T07:13:40;23.20;;;10.63;;
68247;SDS011;55064;49.636;12.164;2022-10-01T07:16:07;25.87;;;12.00;;
68247;SDS011;55064;49.636;12.164;2022-10-01T07:18:33;22.97;;;11.03;;
68247;SDS011;55064;49.636;12.164;2022-10-01T07:20:58;25.30;;;11.90;;
68247;SDS011;55064;49.636;12.164;2022-10-01T07:23:26;24.20;;;10.57;;
68247;SDS011;55064;49.636;12.164;2022-10-01T07:25:52;22.43;;;10.20;;
68247;SDS011;55064;49.636;12.164;2022-10-01T07:28:19;23.73;;;10.73;;
68247;SDS011;55064;49.636;12.164;2022-10-01T07:31:01;23.93;;;11.07;;
68247;SDS011;55064;49.636;12.164;2022-10-01T07:33:33;25.58;;;10.70;;
68247;SDS011;55064;49.636;12.164;2022-10-01T07:36:02;24.42;;;11.45;;
68247;SDS011;55064;49.636;12.164;2022-10-01T07:38:30;23.77;;;10.75;;
68247;SDS011;55064;49.636;12.164;2022-10-01T07:40:57;25.33;;;11.70;;
68247;SDS011;55064;49.636;12.164;2022-10-01T07:43:23;23.40;;;11.93;;
68247;SDS011;55064;49.636;12.164;2022-10-01T07:45:48;24.73;;;12.25;;
68247;SDS011;55064;49.636;12.164;2022-10-01T07:48:16;23.57;;;11.50;;
68247;SDS011;55064;49.636;12.164;2022-10-01T07:50:43;23.67;;;11.20;;
68247;SDS011;55064;49.636;12.164;2022-10-01T07:53:11;24.38;;;11.00;;
68247;SDS011;55064;49.636;12.164;2022-10-01T07:55:37;22.13;;;10.68;;
68247;SDS011;55064;49.636;12.164;2022-10-01T07:58:05;23.47;;;10.83;;
68247;SDS011;55064;49.636;12.164;2022-10-01T08:00:32;22.13;;;11.50;;
68247;SDS011;55064;49.636;12.164;2022-10-01T08:03:00;23.85;;;11.38;;
68247;SDS011;55064;49.636;12.164;2022-10-01T08:05:30;22.27;;;10.43;;
68247;SDS011;55064;49.636;12.164;2022-10-01T08:08:06;21.27;;;10.60;;
68247;SDS011;55064;49.636;12.164;2022-10-01T08:10:42;24.03;;;10.77;;
68247;SDS011;55064;49.636;12.164;2022-10-01T08:13:14;21.05;;;10.65;;
68247;SDS011;55064;49.636;12.164;2022-10-01T08:15:43;21.85;;;10.70;;
68247;SDS011;55064;49.636;12.164;2022-10-01T08:18:10;24.90;;;10.30;;
68247;SDS011;55064;49.636;12.164;2022-10-01T08:20:36;22.05;;;10.93;;
68247;SDS011;55064;49.636;12.164;2022-10-01T08:23:07;22.40;;;11.07;;
68247;SDS011;55064;49.636;12.164;2022-10-01T08:25:34;23.33;;;10.88;;
68247;SDS011;55064;49.636;12.164;2022-10-01T08:28:03;24.67;;;11.05;;
68247;SDS011;55064;49.636;12.164;2022-10-01T08:30:28;22.27;;;10.65;;
68247;SDS011;55064;49.636;12.164;2022-10-01T08:32:54;22.90;;;11.27;;
68247;SDS011;55064;49.636;12.164;2022-10-01T08:35:24;24.10;;;10.80;;
68247;SDS011;55064;49.636;12.164;2022-10-01T08:37:50;21.95;;;10.45;;
68247;SDS011;55064;49.636;12.164;2022-10-01T08:40:19;23.20;;;11.48;;
68247;SDS011;55064;49.636;12.164;2022-10-01T08:45:30;21.48;;;10.48;;
68247;SDS011;55064;49.636;12.164;2022-10-01T08:48:13;18.57;;;10.17;;
68247;SDS011;55064;49.636;12.164;2022-10-01T08:50:54;18.95;;;9.40;;
68247;SDS011;55064;49.636;12.164;2022-10-01T08:53:34;21.80;;;10.02;;
68247;SDS011;55064;49.636;12.164;2022-10-01T08:56:04;20.17;;;9.55;;
68247;SDS011;55064;49.636;12.164;2022-10-01T08:58:42;22.38;;;9.50;;
68247;SDS011;55064;49.636;12.164;2022-10-01T09:01:12;17.90;;;8.93;;
68247;SDS011;55064;49.636;12.164;2022-10-01T09:03:40;18.50;;;9.45;;
68247;SDS011;55064;49.636;12.164;2022-10-01T09:06:24;18.88;;;8.35;;
68247;SDS011;55064;49.636;12.164;2022-10-01T09:11:47;15.38;;;7.55;;
68247;SDS011;55064;49.636;12.164;2022-10-01T09:14:49;18.30;;;8.87;;
68247;SDS011;55064;49.636;12.164;2022-10-01T09:20:25;15.27;;;7.60;;
68247;SDS011;55064;49.636;12.164;2022-10-01T09:25:33;17.50;;;8.35;;
68247;SDS011;55064;49.636;12.164;2022-10-01T09:30:42;17.50;;;8.57;;
68247;SDS011;55064;49.636;12.164;2022-10-01T09:33:18;18.50;;;9.07;;
68247;SDS011;55064;49.636;12.164;2022-10-01T09:38:41;16.73;;;8.23;;
68247;SDS011;55064;49.636;12.164;2022-10-01T09:41:09;17.47;;;8.63;;
68247;SDS011;55064;49.636;12.164;2022-10-01T09:43:39;18.13;;;8.88;;
68247;SDS011;55064;49.636;12.164;2022-10-01T09:46:08;21.23;;;8.90;;
68247;SDS011;55064;49.636;12.164;2022-10-01T09:48:53;18.90;;;9.25;;
68247;SDS011;55064;49.636;12.164;2022-10-01T09:51:33;18.10;;;8.48;;
68247;SDS011;55064;49.636;12.164;2022-10-01T09:56:28;16.02;;;8.60;;
68247;SDS011;55064;49.636;12.164;2022-10-01T09:58:58;20.25;;;9.52;;
68247;SDS011;55064;49.636;12.164;2022-10-01T10:01:43;18.07;;;8.70;;
68247;SDS011;55064;49.636;12.164;2022-10-01T10:04:16;16.48;;;8.30;;
68247;SDS011;55064;49.636;12.164;2022-10-01T10:06:44;17.95;;;8.48;;
68247;SDS011;55064;49.636;12.164;2022-10-01T10:09:13;16.42;;;8.07;;
68247;SDS011;55064;49.636;12.164;2022-10-01T10:11:42;15.43;;;8.07;;
68247;SDS011;55064;49.636;12.164;2022-10-01T10:14:21;15.37;;;7.47;;
68247;SDS011;55064;49.636;12.164;2022-10-01T10:16:55;15.40;;;7.85;;
68247;SDS011;55064;49.636;12.164;2022-10-01T10:19:28;16.45;;;8.63;;
68247;SDS011;55064;49.636;12.164;2022-10-01T10:22:08;17.35;;;8.43;;
68247;SDS011;55064;49.636;12.164;2022-10-01T10:24:37;15.15;;;7.60;;
68247;SDS011;55064;49.636;12.164;2022-10-01T10:27:06;15.77;;;7.77;;
68247;SDS011;55064;49.636;12.164;2022-10-01T10:32:37;14.70;;;7.03;;
68247;SDS011;55064;49.636;12.164;2022-10-01T10:35:07;13.70;;;7.10;;
68247;SDS011;55064;49.636;12.164;2022-10-01T10:37:41;14.80;;;7.07;;
68247;SDS011;55064;49.636;12.164;2022-10-01T10:40:29;15.75;;;7.47;;
68247;SDS011;55064;49.636;12.164;2022-10-01T10:43:03;14.65;;;6.97;;
68247;SDS011;55064;49.636;12.164;2022-10-01T10:45:35;16.37;;;8.20;;
68247;SDS011;55064;49.636;12.164;2022-10-01T10:48:06;13.80;;;7.45;;
68247;SDS011;55064;49.636;12.164;2022-10-01T10:50:43;12.27;;;5.68;;
68247;SDS011;55064;49.636;12.164;2022-10-01T10:55:54;12.63;;;5.80;;
68247;SDS011;55064;49.636;12.164;2022-10-01T10:58:28;12.93;;;6.60;;
68247;SDS011;55064;49.636;12.164;2022-10-01T11:00:56;13.43;;;5.97;;
68247;SDS011;55064;49.636;12.164;2022-10-01T11:03:28;16.17;;;6.10;;
68247;SDS011;55064;49.636;12.164;2022-10-01T11:06:08;11.05;;;5.55;;
68247;SDS011;55064;49.636;12.164;2022-10-01T11:08:41;12.13;;;5.80;;
68247;SDS011;55064;49.636;12.164;2022-10-01T11:38:19;13.35;;;6.30;;
68247;SDS011;55064;49.636;12.164;2022-10-01T11:43:50;12.50;;;5.88;;
68247;SDS011;55064;49.636;12.164;2022-10-01T11:46:26;12.15;;;5.10;;
68247;SDS011;55064;49.636;12.164;2022-10-01T11:49:08;11.93;;;5.20;;
68247;SDS011;55064;49.636;12.164;2022-10-01T11:51:47;10.85;;;5.25;;
68247;SDS011;55064;49.636;12.164;2022-10-01T11:54:19;11.77;;;5.68;;
68247;SDS011;55064;49.636;12.164;2022-10-01T11:56:51;10.95;;;5.55;;
68247;SDS011;55064;49.636;12.164;2022-10-01T12:15:52;10.60;;;4.17;;
68247;SDS011;55064;49.636;12.164;2022-10-01T12:18:24;8.82;;;3.67;;
68247;SDS011;55064;49.636;12.164;2022-10-01T12:20:56;8.93;;;4.00;;
68247;SDS011;55064;49.636;12.164;2022-10-01T12:23:27;8.40;;;3.83;;
68247;SDS011;55064;49.636;12.164;2022-10-01T12:31:21;8.45;;;3.45;;
68247;SDS011;55064;49.636;12.164;2022-10-01T12:33:55;9.13;;;3.63;;
68247;SDS011;55064;49.636;12.164;2022-10-01T12:55:50;7.63;;;3.70;;
68247;SDS011;55064;49.636;12.164;2022-10-01T13:06:44;8.75;;;3.75;;
68247;SDS011;55064;49.636;12.164;2022-10-01T13:09:32;8.67;;;3.97;;
68247;SDS011;55064;49.636;12.164;2022-10-01T13:15:13;13.60;;;5.57;;
68247;SDS011;55064;49.636;12.164;2022-10-01T13:17:48;10.75;;;3.40;;
68247;SDS011;55064;49.636;12.164;2022-10-01T13:22:58;7.70;;;3.10;;
68247;SDS011;55064;49.636;12.164;2022-10-01T13:25:31;5.85;;;2.65;;
68247;SDS011;55064;49.636;12.164;2022-10-01T13:28:15;8.27;;;3.05;;
68247;SDS011;55064;49.636;12.164;2022-10-01T13:30:47;6.15;;;2.70;;
68247;SDS011;55064;49.636;12.164;2022-10-01T13:33:21;6.88;;;2.75;;
68247;SDS011;55064;49.636;12.164;2022-10-01T13:36:06;6.77;;;2.87;;
68247;SDS011;55064;49.636;12.164;2022-10-01T13:41:04;9.52;;;4.20;;
68247;SDS011;55064;49.636;12.164;2022-10-01T13:43:46;7.72;;;3.60;;
68247;SDS011;55064;49.636;12.164;2022-10-01T13:46:20;6.93;;;2.90;;
68247;SDS011;55064;49.636;12.164;2022-10-01T13:48:47;6.70;;;3.30;;
68247;SDS011;55064;49.636;12.164;2022-10-01T13:51:16;8.32;;;2.95;;
68247;SDS011;55064;49.636;12.164;2022-10-01T13:53:55;7.85;;;2.90;;
68247;SDS011;55064;49.636;12.164;2022-10-01T13:56:34;8.40;;;3.30;;
68247;SDS011;55064;49.636;12.164;2022-10-01T13:59:05;9.18;;;3.45;;
68247;SDS011;55064;49.636;12.164;2022-10-01T14:01:51;7.10;;;3.13;;
68247;SDS011;55064;49.636;12.164;2022-10-01T14:07:09;9.47;;;4.47;;
68247;SDS011;55064;49.636;12.164;2022-10-01T14:09:49;8.77;;;3.85;;
68247;SDS011;55064;49.636;12.164;2022-10-01T14:12:24;9.73;;;4.70;;
68247;SDS011;55064;49.636;12.164;2022-10-01T14:18:15;12.65;;;5.88;;
68247;SDS011;55064;49.636;12.164;2022-10-01T14:23:32;7.65;;;3.50;;
68247;SDS011;55064;49.636;12.164;2022-10-01T14:26:11;7.82;;;3.10;;
68247;SDS011;55064;49.636;12.164;2022-10-01T14:28:52;7.57;;;3.28;;
68247;SDS011;55064;49.636;12.164;2022-10-01T14:37:27;8.13;;;3.30;;
68247;SDS011;55064;49.636;12.164;2022-10-01T14:39:59;6.68;;;2.72;;
68247;SDS011;55064;49.636;12.164;2022-10-01T14:42:40;7.45;;;3.70;;
68247;SDS011;55064;49.636;12.164;2022-10-01T14:45:13;6.87;;;3.77;;
68247;SDS011;55064;49.636;12.164;2022-10-01T14:47:44;7.20;;;3.10;;
68247;SDS011;55064;49.636;12.164;2022-10-01T14:50:10;7.00;;;3.20;;
68247;SDS011;55064;49.636;12.164;2022-10-01T14:52:46;7.07;;;3.15;;
68247;SDS011;55064;49.636;12.164;2022-10-01T14:55:17;6.90;;;2.88;;
68247;SDS011;55064;49.636;12.164;2022-10-01T14:57:50;6.70;;;2.80;;
68247;SDS011;55064;49.636;12.164;2022-10-01T15:03:02;10.77;;;5.50;;
68247;SDS011;55064;49.636;12.164;2022-10-01T15:05:42;9.05;;;3.65;;
68247;SDS011;55064;49.636;12.164;2022-10-01T15:11:12;8.93;;;4.17;;
68247;SDS011;55064;49.636;12.164;2022-10-01T15:13:44;8.93;;;3.72;;
68247;SDS011;55064;49.636;12.164;2022-10-01T15:16:13;6.55;;;2.60;;
68247;SDS011;55064;49.636;12.164;2022-10-01T15:18:45;7.43;;;3.10;;
68247;SDS011;55064;49.636;12.164;2022-10-01T15:21:28;7.20;;;2.63;;
68247;SDS011;55064;49.636;12.164;2022-10-01T15:24:07;6.47;;;2.70;;
68247;SDS011;55064;49.636;12.164;2022-10-01T15:26:52;6.65;;;2.72;;
68247;SDS011;55064;49.636;12.164;2022-10-01T15:29:19;6.05;;;2.60;;
68247;SDS011;55064;49.636;12.164;2022-10-01T15:31:45;6.53;;;2.80;;
68247;SDS011;55064;49.636;12.164;2022-10-01T15:34:15;5.72;;;2.22;;
68247;SDS011;55064;49.636;12.164;2022-10-01T15:36:43;8.73;;;3.78;;
68247;SDS011;55064;49.636;12.164;2022-10-01T15:41:54;5.72;;;2.00;;
68247;SDS011;55064;49.636;12.164;2022-10-01T15:52:32;5.70;;;1.67;;
68247;SDS011;55064;49.636;12.164;2022-10-01T16:06:22;7.40;;;3.00;;
68247;SDS011;55064;49.636;12.164;2022-10-01T16:08:57;7.00;;;2.67;;
68247;SDS011;55064;49.636;12.164;2022-10-01T16:27:33;7.05;;;2.60;;
68247;SDS011;55064;49.636;12.164;2022-10-01T16:30:17;7.82;;;3.50;;
68247;SDS011;55064;49.636;12.164;2022-10-01T16:32:48;6.63;;;2.25;;
68247;SDS011;55064;49.636;12.164;2022-10-01T16:37:48;6.25;;;2.20;;
68247;SDS011;55064;49.636;12.164;2022-10-01T16:40:16;7.50;;;2.67;;
68247;SDS011;55064;49.636;12.164;2022-10-01T16:42:43;6.00;;;2.08;;
68247;SDS011;55064;49.636;12.164;2022-10-01T16:45:23;6.97;;;2.33;;
68247;SDS011;55064;49.636;12.164;2022-10-01T16:47:53;6.43;;;2.10;;
68247;SDS011;55064;49.636;12.164;2022-10-01T16:50:24;6.28;;;2.30;;
68247;SDS011;55064;49.636;12.164;2022-10-01T16:52:53;6.05;;;2.30;;
68247;SDS011;55064;49.636;12.164;2022-10-01T16:57:53;6.00;;;2.25;;
68247;SDS011;55064;49.636;12.164;2022-10-01T17:00:19;6.10;;;2.13;;
68247;SDS011;55064;49.636;12.164;2022-10-01T17:02:48;6.10;;;3.00;;
68247;SDS011;55064;49.636;12.164;2022-10-01T17:05:18;6.83;;;3.10;;
68247;SDS011;55064;49.636;12.164;2022-10-01T17:07:54;8.68;;;3.30;;
68247;SDS011;55064;49.636;12.164;2022-10-01T17:10:25;6.47;;;2.92;;
68247;SDS011;55064;49.636;12.164;2022-10-01T17:12:55;8.90;;;3.95;;
68247;SDS011;55064;49.636;12.164;2022-10-01T17:15:24;7.57;;;3.40;;
68247;SDS011;55064;49.636;12.164;2022-10-01T17:17:51;9.00;;;3.42;;
68247;SDS011;55064;49.636;12.164;2022-10-01T17:20:20;7.30;;;3.67;;
68247;SDS011;55064;49.636;12.164;2022-10-01T17:22:47;7.25;;;3.17;;
68247;SDS011;55064;49.636;12.164;2022-10-01T17:25:14;6.72;;;3.17;;
68247;SDS011;55064;49.636;12.164;2022-10-01T17:27:49;7.40;;;3.27;;
68247;SDS011;55064;49.636;12.164;2022-10-01T17:30:17;9.43;;;3.95;;
68247;SDS011;55064;49.636;12.164;2022-10-01T17:32:42;8.67;;;3.90;;
68247;SDS011;55064;49.636;12.164;2022-10-01T17:35:09;7.63;;;3.55;;
68247;SDS011;55064;49.636;12.164;2022-10-01T17:37:36;6.80;;;3.00;;
68247;SDS011;55064;49.636;12.164;2022-10-01T17:40:04;7.82;;;3.10;;
68247;SDS011;55064;49.636;12.164;2022-10-01T17:42:35;5.70;;;2.43;;
68247;SDS011;55064;49.636;12.164;2022-10-01T17:45:09;6.45;;;2.50;;
68247;SDS011;55064;49.636;12.164;2022-10-01T17:47:46;7.13;;;2.88;;
68247;SDS011;55064;49.636;12.164;2022-10-01T17:50:17;6.65;;;2.58;;
68247;SDS011;55064;49.636;12.164;2022-10-01T17:52:45;6.03;;;2.60;;
68247;SDS011;55064;49.636;12.164;2022-10-01T17:55:15;6.30;;;2.78;;
68247;SDS011;55064;49.636;12.164;2022-10-01T17:57:43;6.05;;;2.40;;
68247;SDS011;55064;49.636;12.164;2022-10-01T18:00:09;6.27;;;2.63;;
68247;SDS011;55064;49.636;12.164;2022-10-01T18:02:40;6.93;;;2.63;;
68247;SDS011;55064;49.636;12.164;2022-10-01T18:05:09;6.80;;;2.90;;
68247;SDS011;55064;49.636;12.164;2022-10-01T18:07:39;7.67;;;3.00;;